Flight Number: AVA1137 Duration: 2:30
Departure: Tenerife Los Rodeos (GCXO) at 07:15 Distance: 957.961 Nm
Arrival: Madrid / Barajas (LEMD) at 09:45 Equipment: A321

Weather Information
Tenerife / Los Rodeos, Spain (GCXO) 28-28N 016-19W 617M Sep 27, 2020 - 11:30 AM EDT / 2020.09.27 1530 UTC
Wind: from the NW (320 degrees) at 24 MPH (21 KT) (direction variable):0
Visibility: greater than 7 mile(s):0
Sky conditions: mostly cloudy Temperature: 66 F (19 C) Dew Point: 59 F (15 C) Relative Humidity: 77% Pressure (altimeter): 30.09 in. Hg (1019 hPa)
ob: GCXO 271530Z 32021KT 290V350 9999 FEW003 BKN012 19/15 Q1019 NOSIG cycle: 15
Sunrise: 06:59 Sunset: 18:52 (UTC)

Madrid / Barajas, Spain (LEMD) 40-27N 003-33W 582M Sep 27, 2020 - 11:30 AM EDT / 2020.09.27 1530 UTC
Wind: from the NNE (020 degrees) at 10 MPH (9 KT) (direction variable):0
Visibility: greater than 7 mile(s):0 Temperature: 71 F (22 C) Dew Point: 33 F (1 C) Relative Humidity: 24% Pressure (altimeter): 29.97 in. Hg (1015 hPa)
ob: LEMD 271530Z 02009KT 330V070 CAVOK 22/01 Q1015 NOSIG cycle: 15
Sunrise: 06:10 Sunset: 17:59 (UTC)

TAF:2020/09/27 12:27 TAF LEMD 271100Z 2712/2818 01012KT 9999 FEW050 TX23/2815Z TN07/2806Z PROB30 TEMPO 2712/2718 01014G24KT BECMG 2720/2721 01007KT BECMG 2809/2810 VRB05KT

Previous Pireps for this route
Date Aircraft Flight time Fuel used Landing rate On time
2017-06-09A32102.5018022-178Yes
2019-06-01A32102.4517008-375Yes
(pireps marked green are flown by you)

Route map